Time;durP1;ratioP1;P1;durP2;ratioP2;P2;SDS_P1;SDS_P2;PMS_P1;PMS_P2;Temp;Humidity;BMP_temperature;BMP_pressure;BME280_temperature;BME280_humidity;BME280_pressure;Samples;Min_cycle;Max_cycle;Signal;HPM_P1;HPM_P2
2022/08/17 00:00:41;;;;;;;;;27.33;17.33;;;;;20.75;81.88;100230.59;5096456;27;46500;-63
2022/08/17 00:03:15;;;;;;;;;25.67;23.00;;;;;20.79;81.33;100232.81;5096131;27;45286;-65
2022/08/17 00:05:43;;;;;;;;;21.67;20.33;;;;;20.77;81.74;100215.06;5096229;27;45400;-70
2022/08/17 00:08:11;;;;;;;;;22.00;20.67;;;;;20.80;79.91;100220.13;5096529;27;45319;-69
2022/08/17 00:10:37;;;;;;;;;23.67;18.33;;;;;20.78;80.89;100208.66;5095581;27;45604;-70
2022/08/17 00:13:08;;;;;;;;;24.00;23.00;;;;;20.75;81.43;100211.69;5099465;27;45456;-69
2022/08/17 00:15:34;;;;;;;;;29.67;24.00;;;;;20.80;79.67;100214.72;5099530;27;45495;-64
2022/08/17 00:17:59;;;;;;;;;25.67;22.00;;;;;20.80;80.82;100220.97;5098350;27;45617;-63
2022/08/17 00:20:25;;;;;;;;;17.33;15.33;;;;;20.77;81.30;100207.78;5099292;27;46718;-63
2022/08/17 00:23:04;;;;;;;;;21.00;18.67;;;;;20.75;80.19;100199.00;5099855;27;45288;-64
2022/08/17 00:25:30;;;;;;;;;16.67;16.67;;;;;20.82;80.56;100210.84;5099489;27;45452;-65
2022/08/17 00:27:55;;;;;;;;;17.33;15.00;;;;;20.83;80.60;100209.00;5099719;27;45460;-67
2022/08/17 00:30:20;;;;;;;;;20.67;17.00;;;;;20.84;80.84;100205.31;5099151;27;46051;-67
2022/08/17 00:32:46;;;;;;;;;15.33;15.00;;;;;20.78;81.50;100192.44;5099146;27;45449;-71
2022/08/17 00:35:14;;;;;;;;;18.00;15.00;;;;;20.86;80.38;100214.09;5099803;27;45547;-68
2022/08/17 00:37:40;;;;;;;;;14.67;13.33;;;;;20.87;81.15;100215.78;5099628;27;45273;-68
2022/08/17 00:40:08;;;;;;;;;16.33;15.33;;;;;20.86;80.04;100209.53;5098874;27;45426;-65
2022/08/17 00:42:34;;;;;;;;;17.33;15.67;;;;;20.85;80.47;100205.16;5080780;27;45334;-66
2022/08/17 00:45:00;;;;;;;;;10.67;10.67;;;;;20.86;80.39;100198.72;5099252;27;45327;-66
2022/08/17 00:47:26;;;;;;;;;16.00;11.67;;;;;20.88;80.74;100201.28;5098343;27;45270;-67
2022/08/17 00:49:51;;;;;;;;;16.33;14.00;;;;;20.84;80.03;100189.09;5098947;27;46316;-69
2022/08/17 00:52:21;;;;;;;;;15.00;13.67;;;;;20.88;81.68;100185.06;5099464;27;45319;-68
2022/08/17 00:54:51;;;;;;;;;16.33;16.33;;;;;20.87;81.09;100183.38;5099069;27;45436;-66
2022/08/17 00:57:20;;;;;;;;;17.67;15.00;;;;;20.90;81.07;100188.44;5099333;27;45324;-61
2022/08/17 00:59:49;;;;;;;;;17.00;15.33;;;;;20.86;80.16;100187.06;5098167;27;45434;-62
2022/08/17 01:02:18;;;;;;;;;12.33;12.33;;;;;20.87;80.56;100188.78;5098994;27;45346;-69
2022/08/17 01:04:48;;;;;;;;;15.33;15.33;;;;;20.87;80.81;100188.78;5079958;27;45342;-65
2022/08/17 01:07:15;;;;;;;;;13.00;12.00;;;;;20.90;80.98;100199.25;5099102;27;45424;-62
2022/08/17 01:09:41;;;;;;;;;18.00;14.67;;;;;20.82;81.01;100196.50;5098467;27;45318;-63
2022/08/17 01:12:09;;;;;;;;;16.33;14.33;;;;;20.90;80.55;100210.91;5098728;27;45307;-67
2022/08/17 01:14:34;;;;;;;;;12.33;12.33;;;;;20.87;81.48;100199.56;5098677;27;45164;-67
2022/08/17 01:16:59;;;;;;;;;15.00;12.67;;;;;20.91;81.06;100201.78;5099136;27;45255;-66
2022/08/17 01:19:33;;;;;;;;;16.00;16.00;;;;;20.92;81.31;100198.06;5098491;27;46027;-67
2022/08/17 01:22:10;;;;;;;;;16.33;16.33;;;;;20.91;81.59;100206.34;5080352;27;45392;-67
2022/08/17 01:24:39;;;;;;;;;20.00;18.00;;;;;20.89;80.02;100202.97;5098301;27;45742;-65
2022/08/17 01:27:05;;;;;;;;;20.67;17.67;;;;;20.87;80.58;100210.38;5098734;27;45631;-68
2022/08/17 01:29:31;;;;;;;;;13.00;13.00;;;;;20.86;80.91;100204.13;5098185;27;46366;-70
2022/08/17 01:32:00;;;;;;;;;17.67;14.33;;;;;20.87;80.89;100197.72;5097205;27;45330;-66
2022/08/17 01:34:26;;;;;;;;;17.00;15.00;;;;;20.84;80.67;100194.50;5098328;27;45454;-67
2022/08/17 01:36:52;;;;;;;;;18.67;13.67;;;;;20.87;81.62;100205.84;5098611;27;45517;-68
2022/08/17 01:39:47;;;;;;;;;15.67;15.67;;;;;20.86;80.84;100206.00;5098179;27;46723;-69
2022/08/17 01:42:35;;;;;;;;;10.33;10.33;;;;;20.84;80.98;100202.63;5088878;27;45637;-67
2022/08/17 01:45:08;;;;;;;;;17.67;13.67;;;;;20.82;79.81;100205.44;5098051;27;45260;-68
2022/08/17 01:47:33;;;;;;;;;17.33;15.33;;;;;20.75;80.86;100192.75;5098218;27;45283;-69
2022/08/17 01:50:06;;;;;;;;;15.67;15.33;;;;;20.76;81.72;100192.59;5097723;27;45334;-62
2022/08/17 01:52:31;;;;;;;;;14.33;14.33;;;;;20.73;80.85;100192.94;5098123;27;45450;-69
2022/08/17 01:54:57;;;;;;;;;19.67;17.67;;;;;20.75;81.34;100201.72;5097992;27;45460;-70
2022/08/17 01:57:23;;;;;;;;;16.67;16.00;;;;;20.74;81.27;100197.31;5098191;27;45293;-62
2022/08/17 01:59:48;;;;;;;;;19.00;17.67;;;;;20.75;81.33;100201.72;5079400;27;46458;-64
2022/08/17 02:02:13;;;;;;;;;17.00;14.33;;;;;20.74;81.28;100207.28;5097617;27;45432;-66
2022/08/17 02:04:39;;;;;;;;;15.00;15.00;;;;;20.71;81.14;100213.84;5098255;27;45255;-62
2022/08/17 02:07:04;;;;;;;;;16.33;15.67;;;;;20.69;80.96;100213.16;5098299;27;45334;-65
2022/08/17 02:09:30;;;;;;;;;16.33;16.00;;;;;20.68;81.56;100213.31;5097976;27;46116;-66
2022/08/17 02:11:58;;;;;;;;;16.00;14.33;;;;;20.64;81.38;100220.91;5097850;27;45417;-71
2022/08/17 02:14:24;;;;;;;;;17.67;15.67;;;;;20.65;81.13;100221.75;5097914;27;45220;-72
2022/08/17 02:16:50;;;;;;;;;17.33;16.00;;;;;20.64;81.28;100214.66;5097329;27;45390;-71
2022/08/17 02:19:16;;;;;;;;;23.33;20.33;;;;;20.61;81.65;100222.06;5097750;27;46732;-66
2022/08/17 02:21:45;;;;;;;;;25.33;19.67;;;;;20.59;81.37;100215.97;5079315;27;45525;-72
2022/08/17 02:24:16;;;;;;;;;18.67;17.67;;;;;20.60;82.05;100212.28;5097043;27;45268;-69
2022/08/17 02:26:41;;;;;;;;;23.00;18.33;;;;;20.59;81.53;100210.56;5097625;27;46075;-67
2022/08/17 02:29:07;;;;;;;;;21.00;14.67;;;;;20.57;81.30;100209.91;5097308;27;45369;-65
2022/08/17 02:31:34;;;;;;;;;23.00;21.33;;;;;20.55;81.39;100211.03;5097349;27;45470;-67
2022/08/17 02:33:59;;;;;;;;;19.67;17.33;;;;;20.52;81.46;100206.81;5097369;27;45465;-67
2022/08/17 02:36:25;;;;;;;;;22.67;21.33;;;;;20.53;82.04;100218.47;5097602;27;45308;-68
2022/08/17 02:38:50;;;;;;;;;25.33;22.00;;;;;20.53;81.66;100222.00;5096589;27;46149;-68
2022/08/17 02:41:15;;;;;;;;;23.33;21.00;;;;;20.54;81.55;100223.69;5078440;27;45474;-72
2022/08/17 02:43:41;;;;;;;;;22.33;20.33;;;;;20.50;81.35;100225.03;5097517;27;45487;-70
2022/08/17 02:46:07;;;;;;;;;23.33;19.00;;;;;20.52;81.50;100232.97;5097467;27;45216;-65
2022/08/17 02:48:32;;;;;;;;;26.33;21.33;;;;;20.53;81.66;100234.66;5097056;27;46203;-64
2022/08/17 02:50:59;;;;;;;;;17.00;15.00;;;;;20.51;81.78;100226.72;5097307;27;45609;-63
2022/08/17 02:53:25;;;;;;;;;22.67;19.00;;;;;20.50;81.41;100225.03;5097530;27;45350;-61
2022/08/17 02:55:50;;;;;;;;;21.67;18.33;;;;;20.47;80.80;100222.66;5078557;27;45342;-64
2022/08/17 02:58:17;;;;;;;;;18.33;15.67;;;;;20.52;80.95;100231.13;5096928;27;46167;-69
2022/08/17 03:00:46;;;;;;;;;20.00;18.00;;;;;20.54;81.14;100231.81;5096769;27;45393;-72
2022/08/17 03:03:17;;;;;;;;;14.67;14.67;;;;;20.59;80.81;100223.25;5097133;27;45173;-66
2022/08/17 03:05:44;;;;;;;;;15.33;15.33;;;;;20.60;80.78;100211.44;5097062;27;45484;-64
2022/08/17 03:08:10;;;;;;;;;17.33;16.00;;;;;20.65;80.47;100214.47;5096710;27;46264;-63
2022/08/17 03:10:35;;;;;;;;;18.00;15.33;;;;;20.66;80.19;100209.94;5096630;27;45483;-63
2022/08/17 03:13:01;;;;;;;;;20.67;19.67;;;;;20.64;80.69;100199.28;5096952;27;45339;-64
2022/08/17 03:15:30;;;;;;;;;16.67;16.67;;;;;20.63;80.37;100197.59;5095943;27;45413;-61
2022/08/17 03:17:56;;;;;;;;;18.67;17.67;;;;;20.70;80.12;100201.31;5096413;27;45329;-63
2022/08/17 03:20:23;;;;;;;;;18.33;17.33;;;;;20.73;79.88;100192.06;5096899;27;45393;-64
2022/08/17 03:22:51;;;;;;;;;17.00;13.00;;;;;20.75;80.37;100201.72;5096560;27;45417;-64
2022/08/17 03:25:29;;;;;;;;;18.00;16.67;;;;;20.77;80.03;100194.28;5096986;27;45585;-68
2022/08/17 03:27:55;;;;;;;;;18.67;17.00;;;;;20.78;78.67;100189.72;5096260;27;46495;-62
2022/08/17 03:30:23;;;;;;;;;19.00;15.33;;;;;20.81;78.48;100189.41;5096649;27;45244;-69
2022/08/17 03:32:50;;;;;;;;;19.33;18.67;;;;;20.78;78.17;100190.56;5078278;27;45449;-70
2022/08/17 03:35:18;;;;;;;;;16.67;16.67;;;;;20.82;77.86;100188.38;5096837;27;45325;-61
2022/08/17 03:37:44;;;;;;;;;19.33;17.33;;;;;20.80;78.04;100176.91;5096191;27;45325;-67
2022/08/17 03:40:10;;;;;;;;;19.33;17.67;;;;;20.83;79.42;100173.84;5096367;27;45200;-64
2022/08/17 03:42:38;;;;;;;;;17.33;16.00;;;;;20.90;78.35;100180.31;5096681;27;45353;-62
2022/08/17 03:45:07;;;;;;;;;19.33;14.67;;;;;20.88;78.20;100183.19;5096796;27;45317;-66
2022/08/17 03:58:36;;;;;;;;;19.33;18.33;;;;;20.96;78.97;100193.19;5099847;27;45334;-71
2022/08/17 04:01:02;;;;;;;;;15.00;15.00;;;;;21.00;77.35;100199.97;5099767;27;45386;-73
2022/08/17 04:03:27;;;;;;;;;18.33;15.67;;;;;21.00;77.97;100199.97;5100101;27;45314;-72
2022/08/17 04:05:53;;;;;;;;;19.67;17.67;;;;;21.01;77.47;100209.78;5100445;27;45569;-70
2022/08/17 04:08:18;;;;;;;;;16.67;16.67;;;;;21.03;77.21;100217.72;5099507;27;45960;-71
2022/08/17 04:10:44;;;;;;;;;14.00;14.00;;;;;20.99;77.68;100211.81;5085327;27;45350;-69
2022/08/17 04:13:09;;;;;;;;;19.67;16.67;;;;;21.03;77.48;100215.88;5079360;28;45398;-70
2022/08/17 04:15:35;;;;;;;;;14.00;14.00;;;;;21.01;77.29;100217.03;5079230;28;45433;-69
2022/08/17 04:18:00;;;;;;;;;15.67;15.67;;;;;21.01;77.41;100223.28;5060358;28;46283;-66
2022/08/17 04:20:26;;;;;;;;;15.00;14.33;;;;;21.00;77.26;100221.59;5084269;27;45364;-70
2022/08/17 04:22:57;;;;;;;;;16.00;14.33;;;;;20.98;77.53;100222.78;5090657;27;45286;-64
2022/08/17 04:25:23;;;;;;;;;17.00;14.33;;;;;20.98;77.28;100220.06;5087495;27;45573;-66
2022/08/17 04:27:49;;;;;;;;;17.00;15.00;;;;;20.94;77.92;100219.53;5060647;28;46048;-65
2022/08/17 04:30:14;;;;;;;;;15.00;15.00;;;;;20.98;77.88;100223.63;5096172;27;45348;-65
2022/08/17 04:32:57;;;;;;;;;16.00;16.00;;;;;20.92;77.91;100210.75;5099299;27;45405;-66
2022/08/17 04:35:28;;;;;;;;;21.33;18.00;;;;;20.94;77.64;100227.63;5081138;27;45525;-65
2022/08/17 04:37:54;;;;;;;;;17.00;17.00;;;;;20.92;78.22;100230.50;5089289;27;46275;-69
2022/08/17 04:43:15;;;;;;;;;19.67;16.33;;;;;20.93;78.38;100220.53;5078992;28;45292;-70
2022/08/17 04:45:43;;;;;;;;;14.33;14.33;;;;;20.88;78.14;100214.78;5079169;27;45452;-66
2022/08/17 04:48:09;;;;;;;;;17.00;15.33;;;;;20.86;77.54;100217.66;5078290;28;47401;-64
2022/08/17 04:50:38;;;;;;;;;15.00;13.67;;;;;20.85;77.47;100218.66;5078520;28;45383;-65
2022/08/17 04:53:04;;;;;;;;;15.67;15.67;;;;;20.78;77.89;100216.75;5060546;28;45232;-75
2022/08/17 04:55:30;;;;;;;;;14.33;14.33;;;;;20.83;77.72;100214.41;5093242;27;45685;-64
2022/08/17 04:57:56;;;;;;;;;21.00;19.00;;;;;20.74;77.27;100209.97;5080475;27;45289;-69
2022/08/17 05:00:24;;;;;;;;;15.67;14.33;;;;;20.75;77.39;100207.13;5098988;27;45313;-63
2022/08/17 05:02:51;;;;;;;;;16.00;14.67;;;;;20.77;77.82;100204.25;5099103;27;45346;-67
2022/08/17 05:05:25;;;;;;;;;17.67;16.00;;;;;20.77;77.58;100209.66;5080543;27;45429;-66
2022/08/17 05:07:53;;;;;;;;;20.33;18.67;;;;;20.75;77.95;100200.88;5098607;27;45405;-67
2022/08/17 05:10:20;;;;;;;;;23.00;18.00;;;;;20.74;77.50;100193.78;5098419;27;45242;-68
2022/08/17 05:12:45;;;;;;;;;15.00;14.33;;;;;20.72;77.14;100195.78;5098790;27;45670;-71
2022/08/17 05:15:14;;;;;;;;;19.33;17.33;;;;;20.73;77.20;100192.94;5098846;27;45211;-71
2022/08/17 05:17:43;;;;;;;;;17.33;15.67;;;;;20.75;77.37;100184.66;5098583;27;46207;-65
2022/08/17 05:20:09;;;;;;;;;23.33;20.00;;;;;20.74;77.83;100193.78;5098551;27;45271;-68
2022/08/17 05:22:35;;;;;;;;;18.33;18.33;;;;;20.74;77.41;100207.28;5098803;27;45350;-62
2022/08/17 05:25:00;;;;;;;;;20.67;18.67;;;;;20.70;77.39;100197.78;5098798;27;45429;-64
2022/08/17 05:27:26;;;;;;;;;21.00;19.33;;;;;20.77;77.97;100215.06;5098302;27;45806;-63
2022/08/17 05:29:51;;;;;;;;;22.00;19.67;;;;;20.77;77.60;100204.25;5082456;27;45511;-70
2022/08/17 05:32:21;;;;;;;;;19.00;19.00;;;;;20.73;77.91;100198.31;5078711;28;45485;-72
2022/08/17 05:34:46;;;;;;;;;21.67;20.00;;;;;20.75;77.89;100188.19;5078348;28;45424;-72
2022/08/17 05:37:12;;;;;;;;;16.00;16.00;;;;;20.71;78.03;100194.09;5077849;27;45602;-65
2022/08/17 05:39:37;;;;;;;;;21.00;21.00;;;;;20.73;77.34;100203.72;5077732;27;45174;-70
2022/08/17 05:42:03;;;;;;;;;21.67;20.00;;;;;20.69;77.74;100193.38;5077959;28;45271;-67
2022/08/17 05:44:28;;;;;;;;;16.33;16.33;;;;;20.76;78.38;100207.97;5077905;28;45488;-66
2022/08/17 05:46:55;;;;;;;;;24.00;18.67;;;;;20.75;77.27;100190.06;5077901;27;45373;-63
2022/08/17 05:49:26;;;;;;;;;19.33;19.33;;;;;20.81;77.72;100198.34;5058961;27;45292;-68
2022/08/17 05:52:02;;;;;;;;;27.67;22.33;;;;;20.85;78.16;100201.59;5077490;28;45497;-67
2022/08/17 05:54:52;;;;;;;;;22.67;19.67;;;;;20.87;78.16;100207.69;5077991;28;45406;-65
2022/08/17 05:57:45;;;;;;;;;23.33;20.67;;;;;20.90;77.71;100204.66;5077635;28;45406;-66
2022/08/17 06:00:19;;;;;;;;;23.00;21.33;;;;;20.90;78.14;100194.69;5075653;28;45310;-69
2022/08/17 06:03:06;;;;;;;;;21.00;20.33;;;;;20.93;78.55;100188.09;5077366;28;45393;-70
2022/08/17 06:05:57;;;;;;;;;27.00;24.00;;;;;20.97;77.59;100178.69;5077887;28;45334;-68
2022/08/17 06:08:47;;;;;;;;;19.67;18.33;;;;;21.00;78.30;100175.66;5058915;28;45364;-72
2022/08/17 06:11:27;;;;;;;;;24.00;21.00;;;;;21.01;77.60;100177.34;5077419;28;45442;-70
2022/08/17 06:14:08;;;;;;;;;22.00;22.00;;;;;21.00;76.63;100177.50;5077411;28;45230;-71
2022/08/17 06:16:38;;;;;;;;;23.33;21.33;;;;;21.02;77.15;100176.31;5079482;27;45322;-71
2022/08/17 06:19:18;;;;;;;;;28.67;24.67;;;;;21.03;76.94;100171.75;5095606;27;47379;-69
2022/08/17 06:21:49;;;;;;;;;24.33;22.33;;;;;21.06;76.90;100183.09;5097673;27;45463;-71
2022/08/17 06:24:27;;;;;;;;;25.33;23.67;;;;;21.12;76.74;100200.53;5097650;27;45237;-65
2022/08/17 06:26:55;;;;;;;;;25.33;25.33;;;;;21.13;77.11;100204.94;5097772;27;45444;-66
2022/08/17 06:29:45;;;;;;;;;24.00;22.00;;;;;21.14;77.12;100212.88;5079306;27;45667;-70
2022/08/17 06:32:12;;;;;;;;;28.67;25.00;;;;;21.18;77.18;100221.50;5097104;27;45376;-66
2022/08/17 06:34:40;;;;;;;;;23.00;23.00;;;;;21.23;76.94;100231.84;5097363;27;45512;-68
2022/08/17 06:37:31;;;;;;;;;30.33;25.00;;;;;21.17;77.00;100222.50;5096362;27;45622;-63
2022/08/17 06:40:03;;;;;;;;;22.67;19.00;;;;;21.27;75.96;100244.06;5097102;27;46252;-63
2022/08/17 06:42:43;;;;;;;;;22.33;22.33;;;;;21.26;75.88;100255.88;5096850;27;45370;-61
2022/08/17 06:45:34;;;;;;;;;28.00;22.67;;;;;21.24;76.30;100260.59;5097259;27;45437;-62
2022/08/17 06:48:14;;;;;;;;;23.00;23.00;;;;;21.25;76.76;100256.88;5097579;27;45498;-63
2022/08/17 06:50:54;;;;;;;;;25.00;24.00;;;;;21.20;76.54;100258.19;5096629;27;46406;-61
2022/08/17 06:53:28;;;;;;;;;23.33;21.33;;;;;21.19;76.40;100253.78;5097108;27;45405;-62
2022/08/17 06:55:57;;;;;;;;;20.00;20.00;;;;;21.08;76.13;100226.19;5096227;27;45254;-63
2022/08/17 06:58:24;;;;;;;;;25.00;22.00;;;;;21.27;76.48;100260.28;5097510;27;45441;-62
2022/08/17 07:00:53;;;;;;;;;21.00;19.33;;;;;21.25;76.17;100248.75;5078053;27;46521;-66
2022/08/17 07:03:36;;;;;;;;;25.00;25.00;;;;;21.30;76.30;100251.84;5096821;27;45439;-64
2022/08/17 07:06:14;;;;;;;;;27.33;25.33;;;;;21.29;76.82;100258.25;5097086;27;45365;-61
2022/08/17 07:09:09;;;;;;;;;28.67;24.00;;;;;21.30;75.78;100257.25;5096731;27;45430;-64
2022/08/17 07:11:48;;;;;;;;;29.33;24.00;;;;;21.27;76.02;100255.72;5076533;27;47378;-63
2022/08/17 07:14:37;;;;;;;;;27.33;24.33;;;;;21.26;76.43;100264.84;5096714;27;45412;-66
2022/08/17 07:17:09;;;;;;;;;21.33;20.00;;;;;21.20;75.96;100255.47;5096934;27;45437;-66
2022/08/17 07:19:41;;;;;;;;;26.67;25.00;;;;;21.00;76.82;100231.56;5096972;27;45436;-69
2022/08/17 07:22:21;;;;;;;;;23.33;23.00;;;;;21.25;76.12;100281.22;5095735;27;46313;-63
2022/08/17 07:24:51;;;;;;;;;28.67;24.33;;;;;21.24;75.95;100285.78;5096680;27;45705;-65
2022/08/17 07:27:22;;;;;;;;;29.67;25.00;;;;;21.26;76.21;100291.03;5095169;27;45314;-65
2022/08/17 07:30:00;;;;;;;;;25.00;21.67;;;;;21.27;76.46;100300.84;5096804;27;45355;-62
2022/08/17 07:32:33;;;;;;;;;24.00;22.67;;;;;21.26;75.25;100305.41;5095934;27;46369;-62
2022/08/17 07:35:09;;;;;;;;;17.33;17.00;;;;;21.28;76.01;100310.66;5096195;27;45225;-64
2022/08/17 07:37:41;;;;;;;;;24.33;23.00;;;;;21.21;75.31;100316.66;5096744;27;45350;-63
2022/08/17 07:40:32;;;;;;;;;29.67;23.33;;;;;21.18;76.02;100322.41;5096867;27;45635;-63
2022/08/17 07:43:17;;;;;;;;;21.00;19.00;;;;;21.16;76.12;100328.97;5095688;27;46558;-65
2022/08/17 07:48:41;;;;;;;;;19.67;19.00;;;;;21.20;75.46;100330.34;5096598;27;45453;-64
2022/08/17 07:51:17;;;;;;;;;18.67;17.00;;;;;21.25;75.68;100332.59;5094935;27;45433;-65
2022/08/17 07:53:44;;;;;;;;;22.00;21.67;;;;;21.26;76.28;100342.44;5096149;27;46330;-67
2022/08/17 07:56:14;;;;;;;;;19.00;19.00;;;;;21.26;76.13;100337.88;5077947;27;45310;-63
2022/08/17 07:58:41;;;;;;;;;22.67;22.67;;;;;21.35;76.24;100333.34;5095074;27;45354;-65
2022/08/17 08:01:17;;;;;;;;;22.33;17.00;;;;;21.32;74.40;100333.66;5078390;27;45644;-64
2022/08/17 08:03:44;;;;;;;;;21.00;20.00;;;;;21.28;75.94;100340.41;5096205;27;46979;-66
2022/08/17 08:06:22;;;;;;;;;20.33;19.00;;;;;21.29;75.71;100340.25;5095846;27;45288;-64
2022/08/17 08:08:53;;;;;;;;;18.00;18.00;;;;;21.26;75.39;100339.72;5078105;27;45342;-66
2022/08/17 08:11:31;;;;;;;;;23.00;18.67;;;;;21.16;75.49;100343.34;5078087;27;45527;-64
2022/08/17 08:14:21;;;;;;;;;21.33;19.33;;;;;21.17;76.00;100350.47;5095266;27;45589;-66
2022/08/17 08:16:57;;;;;;;;;21.33;19.67;;;;;21.12;76.39;100350.09;5095047;27;45361;-64
2022/08/17 08:19:24;;;;;;;;;21.00;21.00;;;;;21.13;76.84;100350.94;5095957;27;45222;-67
2022/08/17 08:22:17;;;;;;;;;20.67;20.33;;;;;21.12;78.20;100365.47;5096042;27;45616;-67
2022/08/17 08:25:00;;;;;;;;;19.67;19.67;;;;;21.03;79.04;100364.56;5095317;27;46460;-64
2022/08/17 08:27:32;;;;;;;;;18.67;16.00;;;;;21.02;79.61;100370.97;5095878;27;45386;-65
2022/08/17 08:30:13;;;;;;;;;22.00;20.33;;;;;20.96;78.89;100371.59;5077374;27;45385;-65
2022/08/17 08:32:47;;;;;;;;;20.00;15.33;;;;;20.96;79.83;100373.47;5097682;27;45287;-65
2022/08/17 08:35:21;;;;;;;;;21.67;21.33;;;;;20.95;79.35;100378.00;5099088;27;46678;-61
2022/08/17 08:37:55;;;;;;;;;19.67;17.33;;;;;20.95;79.56;100369.91;5080681;27;45457;-62
2022/08/17 08:40:39;;;;;;;;;21.67;19.33;;;;;20.98;79.56;100363.34;5099203;27;45471;-64
2022/08/17 08:43:35;;;;;;;;;20.00;19.67;;;;;21.00;78.26;100355.94;5099309;27;45622;-63
2022/08/17 08:46:03;;;;;;;;;18.67;18.67;;;;;20.98;79.03;100358.81;5098644;27;46743;-65
2022/08/17 08:48:55;;;;;;;;;21.00;21.00;;;;;21.02;79.04;100357.47;5099048;27;45334;-66
2022/08/17 08:51:58;;;;;;;;;22.33;17.67;;;;;21.03;77.67;100371.84;5080607;27;45442;-60
2022/08/17 08:54:41;;;;;;;;;23.00;20.33;;;;;21.03;78.61;100378.09;5099080;27;45471;-60
2022/08/17 08:57:14;;;;;;;;;21.00;20.00;;;;;21.06;78.85;100364.25;5098968;27;45212;-60
2022/08/17 08:59:43;;;;;;;;;24.67;21.67;;;;;21.18;77.96;100371.09;5098267;27;45281;-64
2022/08/17 09:02:33;;;;;;;;;19.00;16.67;;;;;21.23;78.07;100369.78;5080553;27;45363;-66
2022/08/17 09:05:06;;;;;;;;;27.00;22.33;;;;;21.29;77.25;100371.84;5099363;27;45362;-62
2022/08/17 09:07:46;;;;;;;;;25.00;20.67;;;;;21.38;77.98;100370.91;5099014;27;46033;-65
2022/08/17 09:10:25;;;;;;;;;23.33;19.33;;;;;21.43;76.90;100369.41;5098977;27;45205;-65
2022/08/17 09:13:08;;;;;;;;;24.33;24.33;;;;;21.43;77.08;100368.56;5098735;27;45348;-62
2022/08/17 09:15:43;;;;;;;;;23.00;21.67;;;;;21.51;77.09;100363.19;5098702;27;45353;-62
2022/08/17 09:18:23;;;;;;;;;22.33;20.67;;;;;21.42;77.35;100356.03;5098905;27;46007;-62
2022/08/17 09:20:58;;;;;;;;;23.33;20.33;;;;;21.43;76.91;100363.13;5098407;27;45737;-61
2022/08/17 09:23:43;;;;;;;;;22.00;18.67;;;;;21.41;76.91;100355.19;5098745;27;45277;-62
2022/08/17 09:26:21;;;;;;;;;27.67;23.00;;;;;21.43;76.90;100357.72;5098656;27;45349;-65
2022/08/17 09:28:50;;;;;;;;;26.33;22.00;;;;;21.44;76.39;100364.84;5098317;27;45389;-63
2022/08/17 09:32:00;;;;;;;;;22.67;21.67;;;;;21.38;77.00;100360.09;5098244;27;45444;-61
2022/08/17 09:34:49;;;;;;;;;27.67;21.67;;;;;21.35;76.46;100357.69;5098342;27;45283;-64
2022/08/17 09:37:25;;;;;;;;;21.67;21.67;;;;;21.33;76.62;100362.41;5098910;27;45443;-63
2022/08/17 09:40:19;;;;;;;;;21.00;19.33;;;;;21.34;76.39;100364.09;5097273;27;46352;-64
2022/08/17 09:43:15;;;;;;;;;25.33;24.00;;;;;21.35;75.80;100355.81;5096951;27;45453;-63
2022/08/17 09:45:48;;;;;;;;;23.33;23.00;;;;;21.41;76.53;100357.06;5079728;27;45454;-65
2022/08/17 09:48:26;;;;;;;;;25.33;21.67;;;;;21.37;76.33;100339.47;5080606;27;45456;-63
2022/08/17 09:51:13;;;;;;;;;24.33;21.33;;;;;21.43;76.20;100357.72;5080973;27;45478;-64
2022/08/17 09:53:39;;;;;;;;;20.33;20.33;;;;;21.43;76.68;100366.69;5098063;27;45406;-65
2022/08/17 09:56:08;;;;;;;;;25.67;23.33;;;;;21.49;76.83;100376.03;5079940;27;45413;-65
2022/08/17 09:59:04;;;;;;;;;21.00;21.00;;;;;21.49;76.79;100384.16;5098033;27;45271;-67
2022/08/17 10:01:43;;;;;;;;;27.67;24.33;;;;;21.47;77.29;100387.00;5097937;27;48075;-67
2022/08/17 10:04:31;;;;;;;;;23.33;23.33;;;;;21.55;76.39;100388.91;5097840;27;45241;-65
2022/08/17 10:07:34;;;;;;;;;26.67;25.67;;;;;21.56;76.59;100390.59;5097760;27;45279;-63
2022/08/17 10:10:12;;;;;;;;;22.00;20.33;;;;;21.62;74.99;100403.50;5095575;27;45259;-61
2022/08/17 10:12:44;;;;;;;;;29.67;22.33;;;;;21.63;75.66;100401.63;5097375;27;46126;-65
2022/08/17 10:15:21;;;;;;;;;23.00;23.00;;;;;21.67;75.09;100403.84;5097452;27;45471;-65
2022/08/17 10:18:14;;;;;;;;;26.33;23.67;;;;;21.72;75.13;100406.91;5097744;27;45438;-62
2022/08/17 10:20:51;;;;;;;;;23.33;23.33;;;;;21.77;74.93;100415.41;5097696;27;45198;-64
2022/08/17 10:26:23;;;;;;;;;23.67;22.33;;;;;21.89;72.68;100401.59;5097361;27;45422;-61
2022/08/17 10:28:49;;;;;;;;;23.33;23.33;;;;;21.95;72.57;100407.19;5088143;27;45409;-65
2022/08/17 10:31:26;;;;;;;;;30.00;24.33;;;;;21.99;73.23;100413.94;5077341;28;45602;-63
2022/08/17 10:34:17;;;;;;;;;27.00;27.00;;;;;22.01;74.17;100405.69;5076744;28;45839;-64
2022/08/17 10:36:54;;;;;;;;;28.67;28.67;;;;;22.02;72.82;100415.50;5076996;28;45464;-63
2022/08/17 10:39:31;;;;;;;;;25.33;23.00;;;;;22.05;73.19;100407.03;5077202;28;45447;-63
2022/08/17 10:42:11;;;;;;;;;29.00;28.33;;;;;22.08;72.44;100406.75;5059342;28;45441;-66
2022/08/17 10:44:47;;;;;;;;;25.67;24.33;;;;;22.14;72.81;100399.84;5058246;28;47890;-65
2022/08/17 10:47:15;;;;;;;;;30.00;26.67;;;;;22.15;71.46;100383.41;5076325;28;45374;-62
2022/08/17 10:49:52;;;;;;;;;29.33;26.67;;;;;22.14;71.93;100384.44;5076826;28;45357;-67
2022/08/17 10:52:27;;;;;;;;;28.33;26.33;;;;;22.21;72.47;100390.88;5077413;28;46041;-64
2022/08/17 10:54:55;;;;;;;;;25.33;25.00;;;;;22.21;72.78;100396.28;5076387;28;45628;-62
2022/08/17 10:57:26;;;;;;;;;30.00;26.00;;;;;22.18;71.95;100401.19;5076522;28;45300;-62
2022/08/17 11:00:09;;;;;;;;;26.00;26.00;;;;;22.17;72.42;100407.63;5079920;27;45310;-65
2022/08/17 11:02:46;;;;;;;;;27.67;27.00;;;;;22.16;72.37;100408.66;5096233;27;45451;-66
2022/08/17 11:05:14;;;;;;;;;31.67;28.00;;;;;22.18;72.88;100399.34;5096746;27;46973;-67
2022/08/17 11:08:16;;;;;;;;;28.67;26.33;;;;;22.24;72.58;100406.78;5096773;27;45402;-66
2022/08/17 11:11:04;;;;;;;;;27.00;24.67;;;;;22.32;72.13;100404.09;5096702;27;45271;-65
2022/08/17 11:14:08;;;;;;;;;26.00;22.33;;;;;22.45;71.99;100408.19;5096762;27;45231;-67
2022/08/17 11:16:39;;;;;;;;;31.67;28.33;;;;;22.61;71.65;100406.34;5096532;27;45339;-66
2022/08/17 11:19:23;;;;;;;;;27.33;26.00;;;;;22.71;69.47;100398.06;5096358;27;45525;-64
2022/08/17 11:22:06;;;;;;;;;29.00;29.00;;;;;22.78;69.34;100400.91;5096596;27;45485;-63
2022/08/17 11:24:35;;;;;;;;;25.00;23.00;;;;;22.93;68.86;100391.13;5096963;27;45207;-64
2022/08/17 11:27:07;;;;;;;;;27.67;25.67;;;;;23.09;68.93;100374.00;5096530;27;45366;-66
2022/08/17 11:29:45;;;;;;;;;23.67;23.67;;;;;23.15;68.41;100373.28;5088184;27;45427;-66
2022/08/17 11:32:36;;;;;;;;;30.00;27.67;;;;;23.31;68.40;100377.81;5096459;27;45329;-61
2022/08/17 11:35:12;;;;;;;;;26.00;26.00;;;;;23.40;68.13;100374.94;5096415;27;45258;-65
2022/08/17 11:37:59;;;;;;;;;30.33;30.33;;;;;23.60;68.09;100385.44;5096296;27;45287;-65
2022/08/17 11:40:59;;;;;;;;;33.00;29.67;;;;;23.75;67.09;100397.25;5096483;27;45368;-64
2022/08/17 11:43:47;;;;;;;;;33.67;30.67;;;;;23.95;67.47;100397.66;5096873;27;45262;-63
2022/08/17 11:51:32;;;;;;;;;29.67;29.67;;;;;24.22;66.32;100399.03;5095671;27;45631;-62
2022/08/17 11:52:08;;;;;;;;;38.00;34.00;;;;;24.74;63.05;100382.91;5096195;27;45337;-64
2022/08/17 11:54:44;;;;;;;;;33.33;32.33;;;;;24.83;61.59;100386.41;5094955;27;45323;-63
2022/08/17 11:57:25;;;;;;;;;31.67;30.00;;;;;24.92;62.62;100390.75;5095964;27;45539;-65
2022/08/17 11:59:50;;;;;;;;;34.67;25.67;;;;;24.99;63.35;100388.97;5095809;27;46878;-66